الصفحة الرئيسية
METAR-TAF:

METAR-TAF

مطار :

مطار دون موينغ

بانكوك, تايلاند

دائرة عرض: 13-54-45N, خط طول: 100-36-24E, ارتفاع: 4 متر

مراقبة الطقس الحالي

تاريخ ووقت الإصدار 31 دقيقة قبل الساعة 17:00UTC
ريح 2 عقدة من الجنوب/الجنوب الشرقي
درجة الحرارة 26°درجة مئوية
الرطوبة 100%
ضغط 1006 hPa
الرؤية: 8000 متر
غيوم قليلة على ارتفاع 3000 قدم
غيوم مفككة على ارتفاع 8000 قدم
مطر خفيف

METAR: VTBD 041700Z 15002KT 8000 -RA FEW030 BKN080 26/26 Q1006 NOSIG

زمن: 00:31 (17:31 UTC)

توقعات

تاريخ ووقت الإصدار 6ساعات و 31 دقيقة قبل الساعة 11:00UTC
التوقعات صالحة من04 الساعة 12 UTC إلى 05 الساعة 18 UTC
ريح 10 عقدة من الجنوب
الرؤية 10 كم أو أكثر
غيوم قليلة على ارتفاع 2000 قدم
غيوم متفرقة على ارتفاع 8000 قدم
مؤقت
من 05 الساعة 06 UTC إلى 05 الساعة 12 UTC
ريح 12 عقدة من الجنوب الغربي تتزايد حتى 30 عقدة
الرؤية: 4000 متر
غيوم قليلة على ارتفاع 1800 قدم, مزنة ركامية.
غيوم متفرقة على ارتفاع 3000 قدم
غيوم مفككة على ارتفاع 10000 قدم
عاصفة رعدية, مطر

TAF: VTBD 041100Z 0412/0518 19010KT 9999 FEW020 SCT080 TEMPO 0506/0512 22012G30KT 4000 TSRA FEW018CB SCT030 BKN100

أرصاد الطقس والتوقعات من أكثر من 4000 مطار (تقارير الطقس للمطار METAR والتنبؤ بالطقس بالمطارTAF).

المحطات المتاحة هي النقط الصفراء والحمراء على الخريطة.

حرك المؤشر فوق النقطة لمعرفة اسم المحطة.

ثم انقر لمعرفة أرصاد وتوقعات الطقس.

لتغيير الخارطة: اضغط على الأزرار الخضراء مع رمز الصليب الأسود للتكبير. على الزر الأخضر مع شرطة للتصغير، أو على الأسهم الخضراء للخرائط المجاورة.


METAR-TAF: